createdAt,value
2023-02-22T00:01:02.016Z,52.53
2023-02-22T00:03:32.435Z,53.57
2023-02-22T00:06:02.666Z,51.83
2023-02-22T00:08:32.999Z,47.43
2023-02-22T00:11:01.900Z,46.10
2023-02-22T00:13:31.204Z,51.30
2023-02-22T00:16:00.085Z,45.17
2023-02-22T00:18:29.065Z,47.63
2023-02-22T00:20:59.967Z,41.33
2023-02-22T00:23:29.832Z,40.50
2023-02-22T00:25:58.915Z,43.17
2023-02-22T00:28:26.879Z,45.27
2023-02-22T00:30:56.005Z,43.57
2023-02-22T00:33:24.843Z,43.00
2023-02-22T00:35:52.837Z,38.93
2023-02-22T00:38:20.888Z,36.67
2023-02-22T00:40:48.659Z,41.97
2023-02-22T00:43:16.709Z,40.50
2023-02-22T00:45:44.541Z,42.60
2023-02-22T00:48:13.704Z,35.87
2023-02-22T00:50:41.692Z,40.27
2023-02-22T00:53:10.406Z,43.77
2023-02-22T00:55:39.224Z,37.03
2023-02-22T00:58:08.237Z,38.53
2023-02-22T01:00:38.266Z,35.43
2023-02-22T01:03:06.640Z,39.40
2023-02-22T01:05:36.177Z,39.07
2023-02-22T01:08:06.564Z,40.03
2023-02-22T01:10:34.611Z,35.50
2023-02-22T01:13:04.903Z,37.23
2023-02-22T01:15:32.699Z,37.30
2023-02-22T01:18:00.899Z,42.03
2023-02-22T01:20:30.126Z,40.37
2023-02-22T01:23:01.286Z,44.03
2023-02-22T01:25:31.054Z,44.93
2023-02-22T01:28:00.162Z,48.40
2023-02-22T01:30:30.519Z,46.90
2023-02-22T01:32:58.621Z,43.20
2023-02-22T01:35:29.337Z,49.60
2023-02-22T01:37:58.455Z,45.27
2023-02-22T01:40:29.874Z,50.87
2023-02-22T01:43:00.116Z,51.30
2023-02-22T01:45:50.014Z,43.47
2023-02-22T01:48:21.795Z,48.60
2023-02-22T01:50:54.142Z,43.83
2023-02-22T01:53:24.736Z,48.40
2023-02-22T01:55:56.100Z,46.80
2023-02-22T01:58:27.127Z,46.77
2023-02-22T02:00:55.401Z,45.70
2023-02-22T02:03:27.528Z,45.93
2023-02-22T02:05:57.890Z,42.73
2023-02-22T02:08:36.040Z,48.77
2023-02-22T02:11:09.027Z,45.40
2023-02-22T02:13:37.753Z,42.17
2023-02-22T02:16:06.002Z,40.50
2023-02-22T02:18:33.920Z,42.57
2023-02-22T02:21:35.893Z,45.70
2023-02-22T02:25:00.338Z,51.83
2023-02-22T02:27:40.572Z,45.10
2023-02-22T02:30:38.389Z,50.23
2023-02-22T02:33:16.028Z,54.67
2023-02-22T02:35:52.553Z,46.87
2023-02-22T02:38:31.836Z,45.73
2023-02-22T02:41:09.060Z,42.47
2023-02-22T02:43:44.370Z,46.17
2023-02-22T02:46:19.688Z,46.17
2023-02-22T02:48:56.903Z,49.27
2023-02-22T02:51:30.251Z,47.73
2023-02-22T02:53:59.138Z,55.83
2023-02-22T02:56:27.075Z,50.27
2023-02-22T02:58:55.666Z,65.03
2023-02-22T03:01:42.934Z,62.30
2023-02-22T03:04:32.021Z,64.13
2023-02-22T03:07:20.531Z,50.07
2023-02-22T03:10:03.039Z,55.80
2023-02-22T03:12:43.938Z,54.40
2023-02-22T03:15:23.669Z,60.83
2023-02-22T03:17:57.823Z,56.97
2023-02-22T03:20:34.091Z,54.20
2023-02-22T03:23:09.721Z,48.07
2023-02-22T03:25:41.465Z,47.63
2023-02-22T03:28:13.053Z,52.17
2023-02-22T03:30:46.517Z,55.23
2023-02-22T03:33:20.482Z,54.90
2023-02-22T03:35:57.015Z,47.13
2023-02-22T03:38:30.336Z,49.23
2023-02-22T03:41:03.802Z,36.87
2023-02-22T03:43:36.014Z,39.20
2023-02-22T03:46:04.834Z,43.40
2023-02-22T03:48:39.145Z,45.03
2023-02-22T03:51:08.480Z,39.00
2023-02-22T03:53:37.497Z,41.70
2023-02-22T03:56:10.400Z,49.27
2023-02-22T03:58:44.074Z,49.77
2023-02-22T04:01:12.584Z,46.43
2023-02-22T04:03:42.258Z,42.83
2023-02-22T04:13:55.297Z,39.17
2023-02-22T04:16:23.031Z,45.80
2023-02-22T04:18:50.739Z,38.83
2023-02-22T04:21:18.844Z,40.57
2023-02-22T04:23:46.780Z,40.13
2023-02-22T04:26:14.704Z,38.93
2023-02-22T04:28:42.464Z,37.67
2023-02-22T04:31:12.023Z,40.50
2023-02-22T04:33:39.745Z,37.07
2023-02-22T04:36:08.722Z,42.67
2023-02-22T04:38:36.618Z,41.27
2023-02-22T04:41:04.413Z,40.80
2023-02-22T04:43:32.267Z,37.40
2023-02-22T04:45:59.982Z,33.67
2023-02-22T04:48:29.223Z,34.63
2023-02-22T04:50:57.242Z,34.07
2023-02-22T04:53:24.948Z,34.63
2023-02-22T04:55:52.938Z,34.73
2023-02-22T04:58:20.883Z,34.47
2023-02-22T05:00:48.623Z,31.83
2023-02-22T05:03:16.392Z,36.37
2023-02-22T05:05:45.558Z,34.50
2023-02-22T05:08:13.297Z,31.87
2023-02-22T05:10:41.170Z,32.00
2023-02-22T05:13:09.293Z,29.53
2023-02-22T05:15:37.184Z,35.27
2023-02-22T05:18:05.269Z,30.73
2023-02-22T05:20:35.614Z,28.93
2023-02-22T05:23:05.588Z,30.57
2023-02-22T05:25:34.340Z,31.77
2023-02-22T05:28:03.888Z,29.10
2023-02-22T05:30:35.574Z,30.97
2023-02-22T05:33:03.829Z,28.67
2023-02-22T05:35:31.664Z,29.17
2023-02-22T05:38:01.967Z,28.40
2023-02-22T05:40:31.716Z,34.83
2023-02-22T05:43:00.839Z,31.27
2023-02-22T05:45:29.514Z,27.20
2023-02-22T05:47:57.393Z,25.33
2023-02-22T05:50:27.168Z,23.07
2023-02-22T05:52:57.666Z,28.87
2023-02-22T05:55:26.052Z,29.13
2023-02-22T05:57:55.602Z,32.78
2023-02-22T06:00:26.544Z,28.93
2023-02-22T06:02:58.819Z,25.73
2023-02-22T06:05:29.868Z,24.93
2023-02-22T06:07:59.820Z,27.17
2023-02-22T06:10:30.026Z,27.30
2023-02-22T06:12:59.995Z,25.93
2023-02-22T06:15:29.197Z,25.20
2023-02-22T06:17:57.837Z,32.77
2023-02-22T06:20:28.027Z,24.43
2023-02-22T06:22:57.830Z,28.33
2023-02-22T06:25:32.332Z,27.60
2023-02-22T06:28:02.549Z,27.97
2023-02-22T06:30:30.490Z,27.10
2023-02-22T06:32:58.518Z,23.07
2023-02-22T06:35:26.568Z,20.57
2023-02-22T06:37:54.462Z,25.80
2023-02-22T06:40:22.450Z,22.27
2023-02-22T06:42:50.729Z,22.37
2023-02-22T06:45:20.121Z,22.33
2023-02-22T06:47:48.036Z,19.10
2023-02-22T06:50:22.484Z,23.53
2023-02-22T06:52:50.354Z,22.63
2023-02-22T06:55:20.220Z,26.07
2023-02-22T06:57:48.028Z,20.97
2023-02-22T07:00:17.823Z,22.77
2023-02-22T07:02:48.370Z,24.43
2023-02-22T07:05:18.191Z,19.90
2023-02-22T07:07:46.451Z,21.40
2023-02-22T07:10:21.970Z,22.90
2023-02-22T07:12:50.044Z,20.30
2023-02-22T07:15:19.155Z,20.67
2023-02-22T07:17:48.403Z,19.10
2023-02-22T07:20:16.364Z,20.67
2023-02-22T07:22:44.239Z,22.83
2023-02-22T07:25:12.470Z,22.50
2023-02-22T07:27:41.495Z,25.07
2023-02-22T07:30:16.966Z,22.60
2023-02-22T07:32:45.486Z,25.33
2023-02-22T07:35:18.536Z,24.17
2023-02-22T07:37:48.141Z,21.30
2023-02-22T07:40:17.696Z,22.00
2023-02-22T07:42:53.007Z,26.37
2023-02-22T07:45:21.334Z,23.50
2023-02-22T07:47:49.460Z,24.77
2023-02-22T07:50:20.043Z,23.00
2023-02-22T07:52:48.672Z,21.67
2023-02-22T07:55:18.032Z,21.87
2023-02-22T07:57:47.279Z,20.13
2023-02-22T08:00:17.722Z,23.43
2023-02-22T08:02:45.619Z,19.63
2023-02-22T08:05:13.504Z,23.10
2023-02-22T08:07:43.277Z,21.70
2023-02-22T08:10:12.320Z,19.43
2023-02-22T08:12:40.233Z,20.73
2023-02-22T08:15:10.802Z,19.50
2023-02-22T08:17:38.517Z,20.33
2023-02-22T08:20:07.328Z,17.63
2023-02-22T08:22:35.090Z,19.50
2023-02-22T08:25:04.465Z,20.00
2023-02-22T08:27:33.911Z,21.03
2023-02-22T08:30:01.751Z,22.63
2023-02-22T08:32:29.697Z,18.20
2023-02-22T08:34:57.527Z,22.17
2023-02-22T08:37:25.274Z,22.93
2023-02-22T08:39:54.280Z,22.13
2023-02-22T08:42:23.948Z,23.17
2023-02-22T08:44:51.832Z,24.40
2023-02-22T08:47:19.700Z,22.70
2023-02-22T08:49:47.513Z,22.07
2023-02-22T08:52:15.328Z,25.20
2023-02-22T08:54:43.283Z,24.27
2023-02-22T08:57:11.112Z,24.47
2023-02-22T08:59:41.172Z,23.33
2023-02-22T09:02:16.352Z,21.90
2023-02-22T09:04:44.492Z,26.53
2023-02-22T09:07:13.393Z,26.10
2023-02-22T09:09:41.427Z,20.77
2023-02-22T09:12:09.356Z,22.83
2023-02-22T09:14:37.162Z,22.13
2023-02-22T09:17:06.452Z,25.00
2023-02-22T09:19:34.178Z,21.53
2023-02-22T09:22:02.467Z,22.87
2023-02-22T09:24:30.642Z,20.10
2023-02-22T09:26:59.807Z,20.47
2023-02-22T09:29:28.715Z,22.47
2023-02-22T09:31:57.898Z,20.50
2023-02-22T09:34:29.658Z,20.67
2023-02-22T09:36:58.473Z,22.87
2023-02-22T09:39:26.444Z,17.40
2023-02-22T09:42:04.559Z,20.90
2023-02-22T09:44:39.043Z,18.17
2023-02-22T09:47:14.172Z,19.10
2023-02-22T09:49:52.826Z,18.70
2023-02-22T09:52:27.728Z,19.43
2023-02-22T09:55:05.822Z,20.13
2023-02-22T09:57:37.046Z,16.43
2023-02-22T10:00:13.570Z,18.90
2023-02-22T10:02:48.414Z,19.10
2023-02-22T10:05:27.555Z,15.60
2023-02-22T10:08:01.061Z,17.37
2023-02-22T10:10:33.808Z,18.13
2023-02-22T10:13:14.057Z,17.87
2023-02-22T10:15:52.280Z,17.87
2023-02-22T10:18:42.800Z,20.10
2023-02-22T10:21:24.757Z,19.57
2023-02-22T10:24:04.500Z,15.67
2023-02-22T10:26:36.639Z,18.80
2023-02-22T10:29:12.544Z,17.40
2023-02-22T10:31:44.964Z,19.23
2023-02-22T10:34:16.451Z,16.30
2023-02-22T10:36:49.244Z,16.83
2023-02-22T10:39:24.620Z,19.63
2023-02-22T10:41:56.611Z,17.17
2023-02-22T10:44:24.929Z,18.93
2023-02-22T10:46:54.415Z,16.73
2023-02-22T10:49:25.676Z,15.80
2023-02-22T10:52:02.218Z,19.83
2023-02-22T10:54:34.545Z,19.67
2023-02-22T10:57:03.971Z,17.33
2023-02-22T10:59:35.127Z,20.20
2023-02-22T11:02:14.561Z,20.67
2023-02-22T11:04:47.961Z,20.80
2023-02-22T11:07:24.699Z,17.87
2023-02-22T11:09:55.217Z,18.23
2023-02-22T11:12:29.646Z,17.40
2023-02-22T11:14:58.227Z,18.73
2023-02-22T11:17:34.940Z,17.83
2023-02-22T11:20:02.823Z,18.17
2023-02-22T11:22:39.061Z,19.43
2023-02-22T11:25:08.528Z,20.33
2023-02-22T11:27:40.498Z,18.63
2023-02-22T11:30:21.837Z,20.43
2023-02-22T11:32:52.129Z,21.10
2023-02-22T11:35:31.894Z,21.90
2023-02-22T11:38:17.288Z,18.13
2023-02-22T11:40:45.662Z,19.97
2023-02-22T11:43:17.851Z,19.97
2023-02-22T11:46:04.869Z,20.87
2023-02-22T11:48:36.790Z,21.07
2023-02-22T11:51:17.465Z,18.43
2023-02-22T11:54:02.024Z,20.30
2023-02-22T11:56:37.940Z,18.23
2023-02-22T11:59:21.715Z,20.97
2023-02-22T12:01:55.121Z,21.40
2023-02-22T12:04:41.161Z,22.23
2023-02-22T12:07:22.530Z,18.87
2023-02-22T12:09:57.500Z,18.63
2023-02-22T12:12:35.089Z,22.00
2023-02-22T12:15:13.751Z,20.70
2023-02-22T12:17:59.787Z,19.23
2023-02-22T12:20:40.796Z,20.97
2023-02-22T12:23:20.225Z,21.63
2023-02-22T12:25:58.604Z,21.53
2023-02-22T12:28:33.708Z,21.43
2023-02-22T12:31:15.997Z,20.90
2023-02-22T12:33:55.327Z,19.60
2023-02-22T12:36:32.414Z,21.60
2023-02-22T12:39:07.623Z,23.70
2023-02-22T12:41:46.100Z,20.80
2023-02-22T12:44:20.252Z,20.10
2023-02-22T12:46:52.593Z,19.40
2023-02-22T12:49:29.525Z,20.73
2023-02-22T12:52:19.368Z,21.13
2023-02-22T12:54:56.270Z,19.77
2023-02-22T12:57:38.380Z,18.27
2023-02-22T13:00:08.325Z,16.87
2023-02-22T13:02:41.347Z,22.10
2023-02-22T13:05:15.700Z,20.83
2023-02-22T13:07:52.800Z,24.83
2023-02-22T13:10:33.180Z,18.23
2023-02-22T13:13:12.378Z,22.50
2023-02-22T13:15:50.346Z,16.97
2023-02-22T13:18:26.656Z,21.43
2023-02-22T13:21:01.790Z,22.37
2023-02-22T13:23:41.190Z,20.57
2023-02-22T13:26:15.915Z,19.37
2023-02-22T13:28:50.003Z,20.83
2023-02-22T13:31:36.001Z,17.40
2023-02-22T13:34:30.092Z,16.73
2023-02-22T13:37:14.001Z,17.53
2023-02-22T13:40:03.132Z,19.53
2023-02-22T13:42:55.074Z,20.13
2023-02-22T13:45:50.491Z,23.90
2023-02-22T13:48:33.686Z,21.50
2023-02-22T13:51:14.989Z,22.67
2023-02-22T13:53:54.302Z,23.87
2023-02-22T13:56:23.973Z,22.53
2023-02-22T13:58:54.566Z,20.07
2023-02-22T14:01:45.717Z,19.67
2023-02-22T14:04:46.946Z,19.80
2023-02-22T14:07:57.421Z,19.50
2023-02-22T14:10:56.686Z,20.77
2023-02-22T14:13:26.749Z,23.57
2023-02-22T14:16:24.226Z,20.50
2023-02-22T14:19:06.490Z,23.33
2023-02-22T14:21:36.374Z,19.07
2023-02-22T14:24:08.994Z,21.90
2023-02-22T14:26:38.779Z,21.73
2023-02-22T14:29:17.966Z,23.77
2023-02-22T14:32:06.564Z,20.33
2023-02-22T14:34:50.579Z,21.03
2023-02-22T14:37:21.270Z,21.93
2023-02-22T14:39:52.112Z,23.43
2023-02-22T14:42:24.940Z,21.07
2023-02-22T14:45:00.245Z,24.07
2023-02-22T14:47:32.821Z,27.30
2023-02-22T14:50:08.143Z,23.47
2023-02-22T14:52:39.878Z,24.50
2023-02-22T14:55:16.996Z,23.97
2023-02-22T14:57:54.907Z,23.40
2023-02-22T15:00:31.109Z,23.70
2023-02-22T15:03:00.598Z,23.17
2023-02-22T15:05:32.093Z,28.90
2023-02-22T15:08:02.519Z,32.40
2023-02-22T15:10:32.430Z,26.30
2023-02-22T15:13:12.550Z,27.90
2023-02-22T15:15:47.549Z,30.90
2023-02-22T15:18:23.324Z,30.50
2023-02-22T15:20:57.728Z,34.87
2023-02-22T15:23:30.202Z,37.23
2023-02-22T15:25:58.249Z,32.47
2023-02-22T15:28:30.921Z,33.30
2023-02-22T15:31:18.993Z,34.53
2023-02-22T15:33:47.167Z,35.27
2023-02-22T15:36:18.257Z,36.17
2023-02-22T15:38:50.728Z,34.23
2023-02-22T15:41:27.904Z,35.93
2023-02-22T15:44:05.396Z,40.93
2023-02-22T15:46:36.374Z,37.53
2023-02-22T15:49:19.277Z,37.20
2023-02-22T15:52:02.792Z,35.77
2023-02-22T15:54:31.334Z,40.97
2023-02-22T15:56:59.607Z,37.23
2023-02-22T15:59:30.512Z,36.20
2023-02-22T16:01:59.756Z,38.50
2023-02-22T16:04:30.204Z,38.03
2023-02-22T16:07:16.861Z,40.10
2023-02-22T16:09:50.205Z,39.37
2023-02-22T16:12:29.332Z,36.87
2023-02-22T16:14:58.145Z,34.40
2023-02-22T16:17:36.605Z,36.40
2023-02-22T16:20:33.887Z,37.50
2023-02-22T16:23:24.160Z,40.73
2023-02-22T16:26:20.159Z,35.40
2023-02-22T16:28:53.413Z,33.40
2023-02-22T16:31:22.715Z,37.87
2023-02-22T16:33:51.268Z,37.27
2023-02-22T16:36:20.358Z,37.93
2023-02-22T16:38:51.867Z,36.30
2023-02-22T16:41:20.606Z,34.37
2023-02-22T16:43:51.355Z,34.03
2023-02-22T16:46:20.440Z,38.60
2023-02-22T16:48:48.648Z,33.33
2023-02-22T16:51:22.365Z,36.57
2023-02-22T16:53:54.120Z,38.20
2023-02-22T16:56:25.524Z,35.87
2023-02-22T16:58:53.524Z,33.30
2023-02-22T17:01:23.358Z,32.53
2023-02-22T17:03:53.920Z,31.80
2023-02-22T17:06:22.462Z,34.43
2023-02-22T17:08:52.648Z,35.27
2023-02-22T17:11:20.708Z,34.27
2023-02-22T17:13:51.706Z,32.50
2023-02-22T17:16:20.012Z,31.70
2023-02-22T17:18:48.036Z,31.73
2023-02-22T17:21:17.091Z,37.73
2023-02-22T17:23:46.198Z,35.00
2023-02-22T17:26:17.055Z,33.23
2023-02-22T17:28:45.187Z,34.23
2023-02-22T17:31:21.802Z,31.23
2023-02-22T17:33:51.380Z,34.50
2023-02-22T17:36:20.950Z,34.87
2023-02-22T17:38:49.917Z,30.90
2023-02-22T17:41:19.205Z,33.07
2023-02-22T17:43:46.936Z,36.03
2023-02-22T17:46:15.069Z,33.07
2023-02-22T17:48:42.923Z,32.03
2023-02-22T17:51:12.841Z,31.30
2023-02-22T17:53:41.476Z,29.73
2023-02-22T17:56:12.425Z,27.90
2023-02-22T17:58:42.311Z,28.43
2023-02-22T18:01:21.342Z,30.77
2023-02-22T18:03:49.479Z,32.97
2023-02-22T18:06:23.177Z,35.47
2023-02-22T18:08:56.058Z,28.90
2023-02-22T18:11:26.572Z,32.27
2023-02-22T18:13:56.467Z,37.10
2023-02-22T18:16:25.622Z,33.57
2023-02-22T18:18:53.789Z,32.97
2023-02-22T18:21:21.843Z,34.10
2023-02-22T18:23:49.641Z,34.50
2023-02-22T18:26:19.044Z,34.03
2023-02-22T18:28:48.648Z,34.50
2023-02-22T18:31:20.052Z,38.47
2023-02-22T18:33:49.498Z,38.23
2023-02-22T18:36:22.536Z,34.10
2023-02-22T18:38:51.332Z,39.23
2023-02-22T18:41:20.839Z,35.47
2023-02-22T18:43:50.849Z,37.73
2023-02-22T18:46:22.563Z,37.90
2023-02-22T18:48:54.588Z,35.10
2023-02-22T18:51:25.636Z,37.83
2023-02-22T18:53:56.899Z,38.40
2023-02-22T18:56:29.608Z,37.43
2023-02-22T18:58:59.620Z,36.60
2023-02-22T19:01:29.618Z,35.87
2023-02-22T19:03:57.580Z,37.97
2023-02-22T19:06:25.623Z,32.87
2023-02-22T19:08:54.012Z,38.50
2023-02-22T19:11:23.595Z,41.33
2023-02-22T19:13:53.822Z,36.47
2023-02-22T19:16:23.086Z,39.27
2023-02-22T19:18:57.175Z,36.23
2023-02-22T19:21:26.541Z,41.33
2023-02-22T19:23:54.415Z,40.27
2023-02-22T19:26:24.396Z,40.97
2023-02-22T19:28:53.152Z,38.50
2023-02-22T19:31:25.956Z,39.47
2023-02-22T19:33:55.192Z,38.67
2023-02-22T19:36:24.075Z,40.47
2023-02-22T19:38:52.491Z,38.57
2023-02-22T19:41:22.814Z,38.00
2023-02-22T19:43:53.657Z,40.90
2023-02-22T19:46:22.274Z,40.17
2023-02-22T19:48:51.010Z,37.77
2023-02-22T19:51:24.479Z,42.13
2023-02-22T19:53:53.114Z,37.13
2023-02-22T19:56:27.070Z,42.07
2023-02-22T19:58:56.961Z,43.17
2023-02-22T20:01:26.583Z,40.30
2023-02-22T20:03:59.820Z,40.50
2023-02-22T20:06:34.683Z,38.07
2023-02-22T20:09:03.020Z,41.50
2023-02-22T20:11:30.872Z,37.70
2023-02-22T20:14:00.580Z,36.80
2023-02-22T20:16:30.052Z,41.23
2023-02-22T20:18:57.833Z,37.47
2023-02-22T20:21:28.714Z,37.83
2023-02-22T20:23:59.345Z,39.03
2023-02-22T20:26:29.701Z,42.07
2023-02-22T20:28:58.343Z,44.33
2023-02-22T20:31:26.548Z,42.60
2023-02-22T20:33:56.053Z,37.37
2023-02-22T20:36:24.966Z,38.73
2023-02-22T20:38:53.966Z,38.10
2023-02-22T20:41:26.754Z,41.27
2023-02-22T20:43:56.405Z,38.67
2023-02-22T20:46:25.208Z,42.13
2023-02-22T20:48:55.542Z,40.17
2023-02-22T20:51:23.690Z,37.53
2023-02-22T20:53:51.495Z,39.17
2023-02-22T20:56:21.504Z,44.10
2023-02-22T20:58:51.107Z,43.87
2023-02-22T21:01:22.503Z,43.73
2023-02-22T21:03:51.356Z,38.23
2023-02-22T21:06:21.684Z,40.50
2023-02-22T21:08:53.607Z,42.63
2023-02-22T21:11:22.335Z,40.90
2023-02-22T21:13:52.089Z,45.23
2023-02-22T21:16:22.833Z,40.67
2023-02-22T21:18:52.381Z,44.60
2023-02-22T21:21:20.355Z,46.47
2023-02-22T21:23:50.799Z,50.93
2023-02-22T21:26:20.601Z,53.97
2023-02-22T21:28:51.175Z,43.47
2023-02-22T21:31:22.773Z,48.70
2023-02-22T21:33:52.655Z,46.20
2023-02-22T21:36:21.345Z,43.87
2023-02-22T21:38:53.348Z,42.13
2023-02-22T21:41:23.622Z,40.97
2023-02-22T21:43:52.624Z,46.27
2023-02-22T21:46:22.631Z,41.73
2023-02-22T21:48:50.605Z,47.27
2023-02-22T21:51:20.687Z,42.20
2023-02-22T21:53:52.144Z,40.30
2023-02-22T21:56:23.783Z,41.47
2023-02-22T21:58:59.164Z,45.47
2023-02-22T22:01:30.511Z,36.80
2023-02-22T22:04:01.559Z,37.63
2023-02-22T22:06:31.239Z,39.50
2023-02-22T22:08:59.958Z,38.90
2023-02-22T22:11:30.695Z,40.43
2023-02-22T22:13:59.844Z,41.73
2023-02-22T22:16:30.296Z,42.07
2023-02-22T22:18:59.072Z,45.27
2023-02-22T22:21:27.165Z,37.00
2023-02-22T22:23:56.108Z,40.30
2023-02-22T22:26:25.723Z,43.17
2023-02-22T22:28:55.878Z,41.67
2023-02-22T22:31:25.933Z,39.17
2023-02-22T22:33:56.324Z,40.60
2023-02-22T22:36:26.541Z,36.57
2023-02-22T22:38:57.513Z,40.73
2023-02-22T22:41:28.112Z,39.83
2023-02-22T22:43:56.556Z,36.93
2023-02-22T22:46:24.478Z,39.63
2023-02-22T22:48:52.306Z,40.00
2023-02-22T22:51:22.509Z,42.87
2023-02-22T22:53:51.602Z,39.73
2023-02-22T22:56:21.431Z,45.07
2023-02-22T22:58:50.664Z,38.30
2023-02-22T23:01:20.746Z,42.73
2023-02-22T23:03:55.112Z,41.10
2023-02-22T23:06:26.041Z,39.00
2023-02-22T23:09:00.102Z,38.10
2023-02-22T23:11:29.765Z,40.63
2023-02-22T23:13:57.896Z,37.60
2023-02-22T23:16:25.920Z,38.83
2023-02-22T23:18:53.823Z,40.70
2023-02-22T23:21:24.422Z,39.00
2023-02-22T23:23:56.405Z,34.27
2023-02-22T23:26:26.664Z,39.73
2023-02-22T23:28:56.515Z,39.20
2023-02-22T23:31:24.959Z,38.17
2023-02-22T23:33:52.875Z,40.47
2023-02-22T23:36:21.229Z,37.57
2023-02-22T23:38:50.051Z,41.90
2023-02-22T23:41:19.972Z,36.90
2023-02-22T23:43:48.487Z,36.03
2023-02-22T23:46:19.477Z,41.47
2023-02-22T23:48:51.391Z,37.20
2023-02-22T23:51:25.223Z,39.10
2023-02-22T23:53:55.643Z,40.77
2023-02-22T23:56:30.855Z,37.60
2023-02-22T23:58:58.700Z,35.73
